Time;durP1;ratioP1;P1;durP2;ratioP2;P2;SDS_P1;SDS_P2;PMS_P1;PMS_P2;Temp;Humidity;BMP_temperature;BMP_pressure;BME280_temperature;BME280_humidity;BME280_pressure;Samples;Min_cycle;Max_cycle;Signal;HPM_P1;HPM_P2
2024/02/09 00:02:07;;;;;;;;;;;;;;;10.41;54.72;98991.91;4957558;28;19914;-85
2024/02/09 00:04:32;;;;;;;;;;;;;;;10.38;54.75;98990.44;4957323;28;19921;-85
2024/02/09 00:06:58;;;;;;;;;;;;;;;10.39;54.32;98993.88;4974483;28;20285;-85
2024/02/09 00:09:24;;;;;;;;;;;;;;;10.36;54.57;98995.06;4974533;28;19922;-85
2024/02/09 00:11:49;;;;;;;;;;;;;;;10.32;54.60;98993.81;4974375;28;20284;-85
2024/02/09 00:14:15;;;;;;;;;;;;;;;10.34;54.84;98998.91;4972931;28;19922;-85
2024/02/09 00:16:41;;;;;;;;;;;;;;;10.35;54.29;99005.81;4974116;28;19914;-85
2024/02/09 00:19:08;;;;;;;;;;;;;;;10.33;54.85;99005.19;4974256;28;19918;-85
2024/02/09 00:21:34;;;;;;;;;;;;;;;10.34;54.28;98999.72;4974147;28;19914;-85
2024/02/09 00:23:59;;;;;;;;;;;;;;;10.31;54.71;98996.66;4974277;28;19914;-85
2024/02/09 00:26:25;;;;;;;;;;;;;;;10.28;54.59;99000.47;4956946;28;19957;-85
2024/02/09 00:28:50;;;;;;;;;;;;;;;10.29;54.98;99006.59;4974529;28;19914;-85
2024/02/09 00:31:15;;;;;;;;;;;;;;;10.27;54.30;99003.31;4956924;28;20001;-85
2024/02/09 00:33:42;;;;;;;;;;;;;;;10.27;54.40;99008.59;4973359;28;19921;-85
2024/02/09 00:36:07;;;;;;;;;;;;;;;10.25;54.52;99005.31;4974325;28;19937;-85
2024/02/09 00:38:36;;;;;;;;;;;;;;;10.23;54.39;98996.78;4973222;28;20376;-85
2024/02/09 00:41:05;;;;;;;;;;;;;;;10.23;54.27;98999.41;4974062;28;19922;-85
2024/02/09 00:43:30;;;;;;;;;;;;;;;10.18;54.55;98992.84;4973900;28;19914;-85
2024/02/09 00:45:55;;;;;;;;;;;;;;;10.17;54.34;98993.88;4956354;28;19925;-85
2024/02/09 00:48:21;;;;;;;;;;;;;;;10.16;54.54;98991.41;4973708;28;20303;-85
2024/02/09 00:50:46;;;;;;;;;;;;;;;10.12;54.13;98985.69;4973559;28;19965;-85
2024/02/09 00:53:11;;;;;;;;;;;;;;;10.11;54.57;98989.34;4973527;28;19972;-85
2024/02/09 00:55:36;;;;;;;;;;;;;;;10.11;54.48;98981.44;4973281;28;19915;-85
2024/02/09 00:58:02;;;;;;;;;;;;;;;10.10;54.08;98982.44;4973358;28;19921;-85
2024/02/09 01:00:30;;;;;;;;;;;;;;;10.08;54.40;98976.53;4973617;28;20355;-85
2024/02/09 01:02:56;;;;;;;;;;;;;;;10.04;54.67;98977.09;4973513;28;19914;-85
2024/02/09 01:05:21;;;;;;;;;;;;;;;10.02;54.65;98972.00;4973365;28;19969;-85
2024/02/09 01:07:50;;;;;;;;;;;;;;;9.98;54.50;98965.47;4956150;28;20395;-85
2024/02/09 01:10:15;;;;;;;;;;;;;;;10.00;54.06;98968.75;4971939;28;19968;-85
2024/02/09 02:45:21;;;;;;;;;;;;;;;9.31;54.14;98962.28;4972609;28;20394;-86
2024/02/09 03:04:18;;;;;;;;;;;;;;;9.25;54.41;98950.66;4972466;28;19914;-86
2024/02/09 03:04:20;;;;;;;;;;;;;;;9.18;54.72;98973.47;4975757;28;20371;-86
2024/02/09 03:06:46;;;;;;;;;;;;;;;9.14;54.71;98973.00;4958354;28;20358;-86
2024/02/09 03:09:11;;;;;;;;;;;;;;;9.13;54.79;98976.66;4975499;28;19950;-86
2024/02/09 03:11:36;;;;;;;;;;;;;;;9.18;54.63;98991.91;4975649;28;19918;-86
2024/02/09 03:14:02;;;;;;;;;;;;;;;9.18;54.82;98974.28;4975510;28;19914;-85
2024/02/09 03:16:27;;;;;;;;;;;;;;;9.13;55.09;98978.47;4975599;28;20311;-85
2024/02/09 03:18:52;;;;;;;;;;;;;;;9.08;55.48;98980.81;4975604;28;19914;-86
2024/02/09 03:21:25;;;;;;;;;;;;;;;9.06;55.27;98983.66;4958355;28;20005;-85
2024/02/09 03:23:53;;;;;;;;;;;;;;;9.09;55.55;98980.66;4975437;28;20304;-86
2024/02/09 03:26:18;;;;;;;;;;;;;;;9.13;54.98;98992.44;4975763;28;20375;-85
2024/02/09 03:28:44;;;;;;;;;;;;;;;9.11;55.68;98991.00;4976946;28;19921;-86
2024/02/09 03:31:09;;;;;;;;;;;;;;;9.10;55.50;98984.91;4964666;28;19926;-85
2024/02/09 03:33:34;;;;;;;;;;;;;;;9.09;55.47;99003.53;4979317;28;19924;-86
2024/02/09 03:36:01;;;;;;;;;;;;;;;9.06;55.32;99012.63;4975291;28;20307;-85
2024/02/09 03:38:26;;;;;;;;;;;;;;;9.05;55.21;99010.97;4974276;28;20376;-86
2024/02/09 03:40:51;;;;;;;;;;;;;;;9.06;54.87;99011.78;4975197;28;19914;-86
2024/02/09 03:43:17;;;;;;;;;;;;;;;9.05;54.93;99010.16;4975248;28;20331;-85
2024/02/09 03:45:42;;;;;;;;;;;;;;;9.02;55.43;99013.97;4975042;28;19914;-86
2024/02/09 03:48:07;;;;;;;;;;;;;;;9.00;55.05;99007.25;4958023;28;20296;-86
2024/02/09 03:50:34;;;;;;;;;;;;;;;8.98;55.65;99012.69;4973449;28;19918;-85
2024/02/09 03:52:59;;;;;;;;;;;;;;;8.94;55.30;99018.50;4974637;28;19925;-86
2024/02/09 03:55:25;;;;;;;;;;;;;;;8.95;55.09;99020.13;4974600;28;19914;-86
2024/02/09 03:57:51;;;;;;;;;;;;;;;8.94;54.97;99015.88;4974803;28;20016;-86
2024/02/09 04:00:16;;;;;;;;;;;;;;;8.94;55.03;99019.31;4957290;28;19974;-86
2024/02/09 04:02:42;;;;;;;;;;;;;;;8.97;54.58;99015.50;4973364;28;19918;-86
2024/02/09 04:05:08;;;;;;;;;;;;;;;8.96;54.46;99006.78;4974607;28;19914;-86
2024/02/09 04:07:33;;;;;;;;;;;;;;;8.94;54.27;99013.25;4973133;28;19921;-86
2024/02/09 04:09:58;;;;;;;;;;;;;;;8.91;53.99;99025.72;4957025;28;19922;-85
2024/02/09 04:12:24;;;;;;;;;;;;;;;8.84;54.14;99019.56;4973174;28;20013;-86
2024/02/09 04:14:49;;;;;;;;;;;;;;;8.80;54.46;99025.34;4974470;28;20352;-86
2024/02/09 04:17:14;;;;;;;;;;;;;;;8.79;54.32;99023.72;4957124;28;19949;-85
2024/02/09 04:19:39;;;;;;;;;;;;;;;8.78;54.02;99028.16;4974811;28;19920;-86
2024/02/09 04:22:08;;;;;;;;;;;;;;;8.68;54.13;99024.16;4957130;28;19965;-86
2024/02/09 04:24:36;;;;;;;;;;;;;;;8.67;53.71;99022.53;4973019;28;19961;-86
2024/02/09 04:27:02;;;;;;;;;;;;;;;8.62;53.98;99019.59;4972741;28;19914;-86
2024/02/09 04:29:28;;;;;;;;;;;;;;;8.61;53.95;99034.56;4956637;28;20351;-86
2024/02/09 04:31:53;;;;;;;;;;;;;;;8.56;53.67;99036.91;4974102;28;19918;-86
2024/02/09 04:34:18;;;;;;;;;;;;;;;8.49;53.78;99036.00;4972875;28;19914;-86
2024/02/09 04:36:45;;;;;;;;;;;;;;;8.43;53.54;99036.69;4973895;28;20485;-86
2024/02/09 04:39:11;;;;;;;;;;;;;;;8.20;53.40;99037.50;4956478;28;19914;-85
2024/02/09 04:41:37;;;;;;;;;;;;;;;7.95;54.43;99043.88;4972774;28;20311;-86
2024/02/09 04:44:03;;;;;;;;;;;;;;;7.73;54.51;99049.91;4972935;28;19958;-86
2024/02/09 04:46:28;;;;;;;;;;;;;;;7.67;54.92;99046.16;4974336;28;19921;-86
2024/02/09 04:48:53;;;;;;;;;;;;;;;7.71;54.63;99054.53;4972807;28;20296;-86
2024/02/09 04:51:19;;;;;;;;;;;;;;;7.77;54.65;99045.94;4973093;28;19929;-86
2024/02/09 04:53:44;;;;;;;;;;;;;;;7.81;54.77;99049.88;4956766;28;20004;-86
2024/02/09 04:56:12;;;;;;;;;;;;;;;7.82;54.43;99048.88;4974090;28;20395;-86
2024/02/09 04:58:37;;;;;;;;;;;;;;;7.80;54.11;99050.88;4973633;28;19914;-86
2024/02/09 05:01:03;;;;;;;;;;;;;;;7.83;54.25;99053.97;4972380;28;19921;-86
2024/02/09 05:03:28;;;;;;;;;;;;;;;7.83;54.22;99053.16;4973607;28;20297;-86
2024/02/09 05:05:53;;;;;;;;;;;;;;;7.85;54.15;99057.25;4972039;28;19949;-86
2024/02/09 05:08:19;;;;;;;;;;;;;;;7.84;54.52;99055.59;4973130;28;20276;-86
2024/02/09 05:10:46;;;;;;;;;;;;;;;7.84;54.07;99060.03;4955978;28;19922;-86
2024/02/09 05:13:11;;;;;;;;;;;;;;;7.78;54.43;99068.59;4956108;28;20050;-86
2024/02/09 05:15:37;;;;;;;;;;;;;;;7.79;53.77;99067.63;4973449;28;20380;-86
2024/02/09 05:18:02;;;;;;;;;;;;;;;7.71;54.07;99068.47;4955786;28;20064;-86
2024/02/09 05:20:28;;;;;;;;;;;;;;;7.66;54.07;99068.19;4971470;28;19914;-86
2024/02/09 05:22:53;;;;;;;;;;;;;;;7.51;54.20;99062.81;4973139;28;19914;-86
2024/02/09 05:25:20;;;;;;;;;;;;;;;7.46;53.96;99059.88;4972000;28;20300;-86
2024/02/09 05:27:46;;;;;;;;;;;;;;;7.46;54.16;99062.50;4972177;28;19914;-86
2024/02/09 05:30:11;;;;;;;;;;;;;;;7.49;53.94;99056.91;4955912;28;20449;-86
2024/02/09 05:32:37;;;;;;;;;;;;;;;7.47;53.69;99064.16;4973410;28;19914;-86
2024/02/09 05:35:02;;;;;;;;;;;;;;;7.50;53.74;99065.63;4956069;28;20343;-86
2024/02/09 05:37:27;;;;;;;;;;;;;;;7.51;53.68;99070.69;4973612;28;20384;-86
2024/02/09 05:39:53;;;;;;;;;;;;;;;7.51;53.67;99068.06;4973279;28;19921;-86
2024/02/09 05:42:18;;;;;;;;;;;;;;;7.52;53.60;99072.34;4972936;28;19914;-87
2024/02/09 05:44:44;;;;;;;;;;;;;;;7.53;53.97;99089.72;4971655;28;19936;-86
2024/02/09 05:47:09;;;;;;;;;;;;;;;7.48;53.89;99099.94;4973008;28;19914;-86
2024/02/09 05:49:37;;;;;;;;;;;;;;;7.33;53.57;99093.72;4973062;28;20382;-86
2024/02/09 05:52:03;;;;;;;;;;;;;;;7.26;54.25;99098.81;4973108;28;19918;-86
2024/02/09 05:54:28;;;;;;;;;;;;;;;7.24;54.17;99100.78;4971663;28;19973;-86
2024/02/09 05:56:54;;;;;;;;;;;;;;;7.24;54.43;99102.59;4973026;28;19918;-86
2024/02/09 05:59:21;;;;;;;;;;;;;;;7.25;53.73;99101.59;4955758;28;19921;-86
2024/02/09 06:01:46;;;;;;;;;;;;;;;7.27;53.50;99102.25;4972026;28;20383;-88
2024/02/09 06:04:12;;;;;;;;;;;;;;;7.26;53.56;99106.69;4971657;28;19915;-88
2024/02/09 06:06:45;;;;;;;;;;;;;;;7.28;54.32;99109.16;4974470;28;19945;-88
2024/02/09 06:09:10;;;;;;;;;;;;;;;7.32;53.77;99121.78;4991779;28;19922;-88
2024/02/09 06:11:35;;;;;;;;;;;;;;;7.30;53.54;99123.75;4974241;28;19918;-87
2024/02/09 06:14:02;;;;;;;;;;;;;;;7.38;53.72;99124.72;4974260;28;19917;-88
2024/02/09 06:16:27;;;;;;;;;;;;;;;7.42;53.27;99123.41;4974562;28;19913;-89
2024/02/09 06:18:53;;;;;;;;;;;;;;;7.49;53.26;99134.91;4974600;28;20004;-88
2024/02/09 06:21:18;;;;;;;;;;;;;;;7.52;52.89;99138.00;4991914;28;19910;-88
2024/02/09 06:23:44;;;;;;;;;;;;;;;7.51;53.23;99131.13;4974099;28;19921;-88
2024/02/09 06:26:09;;;;;;;;;;;;;;;7.57;52.68;99125.19;4991739;28;19921;-88
2024/02/09 06:28:35;;;;;;;;;;;;;;;7.59;52.85;99128.47;4991966;28;19926;-88
2024/02/09 06:31:00;;;;;;;;;;;;;;;7.61;52.90;99133.53;4994339;28;20008;-88
2024/02/09 06:33:25;;;;;;;;;;;;;;;7.69;52.85;99135.31;4978218;28;19917;-89
2024/02/09 06:35:51;;;;;;;;;;;;;;;7.77;53.47;99146.63;4978059;28;19914;-85
2024/02/09 06:38:19;;;;;;;;;;;;;;;7.88;52.76;99143.63;4995454;28;19972;-88
2024/02/09 06:40:45;;;;;;;;;;;;;;;7.94;53.14;99139.50;4995286;28;19953;-88
2024/02/09 06:43:10;;;;;;;;;;;;;;;8.00;53.42;99138.81;4995582;28;19920;-88
2024/02/09 06:45:36;;;;;;;;;;;;;;;8.08;52.62;99138.78;4978027;28;19913;-89
2024/02/09 06:48:02;;;;;;;;;;;;;;;8.03;52.69;99135.84;4995450;28;19914;-88
2024/02/09 06:50:28;;;;;;;;;;;;;;;8.06;52.95;99137.31;4994984;28;19976;-87
2024/02/09 06:52:53;;;;;;;;;;;;;;;8.10;52.66;99141.22;4994786;28;20353;-87
2024/02/09 06:55:19;;;;;;;;;;;;;;;8.16;52.75;99130.84;4995191;28;19913;-88
2024/02/09 06:57:44;;;;;;;;;;;;;;;8.21;53.31;99141.69;4978482;28;19914;-88
2024/02/09 07:00:14;;;;;;;;;;;;;;;8.31;52.69;99141.47;4979005;28;19949;-88
2024/02/09 07:02:39;;;;;;;;;;;;;;;8.40;53.36;99140.47;4994426;28;19996;-88
2024/02/09 07:05:10;;;;;;;;;;;;;;;8.46;53.43;99144.22;5014919;28;19949;-87
2024/02/09 07:07:38;;;;;;;;;;;;;;;8.51;53.53;99142.69;5015026;28;19914;-85
2024/02/09 07:10:04;;;;;;;;;;;;;;;8.60;53.52;99133.75;4997093;28;19964;-85
2024/02/09 07:12:29;;;;;;;;;;;;;;;8.72;53.60;99125.44;5013947;28;19965;-84
2024/02/09 07:14:55;;;;;;;;;;;;;;;8.87;53.03;99131.56;4977049;28;19918;-85
2024/02/09 07:17:21;;;;;;;;;;;;;;;8.97;53.96;99126.09;4977390;28;19929;-86
2024/02/09 07:19:46;;;;;;;;;;;;;;;9.09;53.74;99137.84;4994783;28;19910;-85
2024/02/09 07:22:12;;;;;;;;;;;;;;;9.24;53.54;99125.50;4994530;28;19924;-85
2024/02/09 07:24:37;;;;;;;;;;;;;;;9.37;53.48;99124.88;4977226;28;19917;-86
2024/02/09 07:27:02;;;;;;;;;;;;;;;9.48;53.09;99124.44;4976899;28;19972;-85
2024/02/09 07:29:28;;;;;;;;;;;;;;;9.59;52.99;99117.91;4994356;28;19914;-86
2024/02/09 07:31:53;;;;;;;;;;;;;;;9.70;53.30;99120.94;4994116;28;19925;-85
2024/02/09 07:34:18;;;;;;;;;;;;;;;9.78;54.05;99112.09;4977010;28;19972;-85
2024/02/09 07:36:46;;;;;;;;;;;;;;;9.91;53.94;99112.28;4977007;28;20307;-85
2024/02/09 07:39:11;;;;;;;;;;;;;;;10.01;53.60;99102.25;4976731;28;20359;-85
2024/02/09 07:41:36;;;;;;;;;;;;;;;10.12;54.19;99098.31;4976164;28;19913;-85
2024/02/09 07:44:03;;;;;;;;;;;;;;;10.19;53.59;99097.38;4977442;28;20394;-85
2024/02/09 07:46:28;;;;;;;;;;;;;;;10.30;53.84;99098.75;4977028;28;19996;-85
2024/02/09 07:48:55;;;;;;;;;;;;;;;10.38;53.37;99106.53;4994710;28;19956;-85
2024/02/09 07:51:20;;;;;;;;;;;;;;;10.43;54.32;99090.16;4977275;28;19913;-85
2024/02/09 07:53:52;;;;;;;;;;;;;;;10.51;53.97;99092.69;4994767;28;19924;-85
2024/02/09 07:56:17;;;;;;;;;;;;;;;10.62;52.66;99075.53;4994721;28;19920;-85
2024/02/09 07:58:43;;;;;;;;;;;;;;;10.71;53.75;99077.84;4993542;28;19925;-85
2024/02/09 08:01:08;;;;;;;;;;;;;;;10.79;53.20;99061.88;4993880;28;19945;-85
2024/02/09 08:03:38;;;;;;;;;;;;;;;10.91;53.63;99063.97;4993213;28;20347;-84
2024/02/09 08:06:04;;;;;;;;;;;;;;;10.99;52.34;99050.63;4994091;28;19918;-84
2024/02/09 08:08:29;;;;;;;;;;;;;;;11.07;53.09;99055.75;4993978;28;19929;-85
2024/02/09 08:10:54;;;;;;;;;;;;;;;11.16;53.23;99057.28;4976591;28;19969;-85
2024/02/09 08:13:20;;;;;;;;;;;;;;;11.24;53.25;99053.66;4962972;28;19918;-85
2024/02/09 08:15:46;;;;;;;;;;;;;;;11.30;52.98;99048.41;4989442;28;19925;-84
2024/02/09 08:18:11;;;;;;;;;;;;;;;11.37;53.08;99049.28;4987576;28;19922;-84
2024/02/09 08:20:36;;;;;;;;;;;;;;;11.46;52.75;99050.75;4956886;28;19918;-85
2024/02/09 08:23:02;;;;;;;;;;;;;;;11.51;52.04;99042.22;4958349;28;19914;-85
2024/02/09 08:25:27;;;;;;;;;;;;;;;11.58;51.80;99045.72;4976090;28;19918;-85
2024/02/09 08:27:53;;;;;;;;;;;;;;;11.66;52.33;99055.31;4974365;28;19917;-85
2024/02/09 08:30:18;;;;;;;;;;;;;;;11.75;51.82;99054.13;4993228;28;19918;-85
2024/02/09 08:32:44;;;;;;;;;;;;;;;11.84;51.58;99057.44;4993197;28;19993;-85
2024/02/09 08:35:09;;;;;;;;;;;;;;;11.91;51.44;99048.56;4993005;28;20009;-84
2024/02/09 08:37:35;;;;;;;;;;;;;;;11.97;51.59;99050.41;4991624;28;19922;-85
2024/02/09 08:40:00;;;;;;;;;;;;;;;12.05;51.89;99054.69;4975975;28;20375;-85
2024/02/09 08:42:26;;;;;;;;;;;;;;;12.15;51.51;99059.59;4991503;28;19917;-85
2024/02/09 08:44:52;;;;;;;;;;;;;;;12.25;52.48;99050.25;4992988;28;20034;-85
2024/02/09 08:47:17;;;;;;;;;;;;;;;12.34;52.70;99057.00;4991138;28;19918;-84
2024/02/09 08:49:43;;;;;;;;;;;;;;;12.46;51.45;99051.91;4991274;28;19925;-84
2024/02/09 08:52:09;;;;;;;;;;;;;;;12.70;52.06;99050.53;4977033;28;19923;-85
2024/02/09 08:54:35;;;;;;;;;;;;;;;12.86;53.23;99049.31;4955365;28;19914;-84
2024/02/09 08:57:01;;;;;;;;;;;;;;;13.02;52.64;99048.88;4974023;28;19925;-84
2024/02/09 08:59:26;;;;;;;;;;;;;;;13.15;53.07;99048.88;4971072;28;19918;-84
2024/02/09 09:01:52;;;;;;;;;;;;;;;13.32;52.95;99036.84;4983814;28;19957;-85
2024/02/09 09:04:18;;;;;;;;;;;;;;;13.50;52.33;99038.84;4969120;28;19918;-84
2024/02/09 09:06:43;;;;;;;;;;;;;;;13.58;52.63;99037.81;4973966;28;19921;-84
2024/02/09 09:09:09;;;;;;;;;;;;;;;13.70;52.99;99030.81;4986336;28;19922;-84
2024/02/09 09:11:34;;;;;;;;;;;;;;;13.76;52.87;99032.63;4973079;28;20012;-84
2024/02/09 09:14:00;;;;;;;;;;;;;;;13.86;53.60;99032.16;4988254;28;19940;-84
2024/02/09 09:16:26;;;;;;;;;;;;;;;13.98;51.71;99025.97;4992073;28;19917;-84
2024/02/09 09:18:51;;;;;;;;;;;;;;;14.14;51.53;99024.69;4987455;28;19925;-84
2024/02/09 09:21:16;;;;;;;;;;;;;;;14.19;52.60;99016.91;4991429;28;19918;-83
2024/02/09 09:23:42;;;;;;;;;;;;;;;14.30;53.73;99023.38;4992114;28;19997;-84
2024/02/09 09:26:07;;;;;;;;;;;;;;;14.34;52.58;99019.25;4989722;28;19918;-83
2024/02/09 09:28:33;;;;;;;;;;;;;;;14.42;52.72;99027.00;4993122;28;19920;-84
2024/02/09 09:30:59;;;;;;;;;;;;;;;14.54;51.59;99024.44;4992903;28;20394;-84
2024/02/09 09:33:24;;;;;;;;;;;;;;;14.61;51.53;99020.72;4991199;28;19918;-85
2024/02/09 09:35:49;;;;;;;;;;;;;;;14.70;52.00;99015.13;4992068;28;19914;-82
2024/02/09 09:38:15;;;;;;;;;;;;;;;14.81;51.44;99015.22;4973004;28;20449;-83
2024/02/09 09:40:40;;;;;;;;;;;;;;;14.88;52.08;99001.91;4968651;28;20027;-83
2024/02/09 09:43:06;;;;;;;;;;;;;;;14.98;51.93;98998.75;4963182;28;19914;-83
2024/02/09 09:45:34;;;;;;;;;;;;;;;15.07;51.71;98995.59;4971872;28;19914;-83
2024/02/09 09:48:00;;;;;;;;;;;;;;;15.17;50.72;98990.56;4983578;28;20292;-84
2024/02/09 09:50:26;;;;;;;;;;;;;;;15.26;50.98;98994.56;4991271;28;19932;-83
2024/02/09 09:52:55;;;;;;;;;;;;;;;15.36;50.65;98990.56;4991911;28;20064;-83
2024/02/09 09:55:24;;;;;;;;;;;;;;;15.41;50.63;98986.19;5007739;28;19976;-84
2024/02/09 09:57:49;;;;;;;;;;;;;;;15.46;50.93;98981.03;5002182;28;19917;-83
2024/02/09 10:00:15;;;;;;;;;;;;;;;15.53;50.58;98983.59;5005771;28;19917;-84
2024/02/09 10:02:40;;;;;;;;;;;;;;;15.63;50.40;98967.16;4983702;28;19922;-84
2024/02/09 10:05:09;;;;;;;;;;;;;;;15.76;50.09;98967.81;5008537;28;20426;-83
2024/02/09 10:07:36;;;;;;;;;;;;;;;15.85;49.80;98971.78;5012467;28;19988;-85
2024/02/09 10:10:02;;;;;;;;;;;;;;;15.92;49.37;98968.22;4995363;28;19961;-83
2024/02/09 10:12:28;;;;;;;;;;;;;;;15.97;49.28;98955.84;4995170;28;19965;-84
2024/02/09 10:14:54;;;;;;;;;;;;;;;16.05;49.54;98938.72;4995839;28;19981;-84
2024/02/09 10:17:21;;;;;;;;;;;;;;;16.12;49.12;98926.94;4991594;28;19930;-84
2024/02/09 10:19:47;;;;;;;;;;;;;;;16.26;48.86;98927.53;4976609;28;20075;-83
2024/02/09 10:22:12;;;;;;;;;;;;;;;16.36;48.91;98935.78;4977756;28;19961;-84
2024/02/09 10:24:40;;;;;;;;;;;;;;;16.46;47.85;98937.91;4972574;28;19972;-84
2024/02/09 10:27:06;;;;;;;;;;;;;;;16.52;47.92;98937.78;4959282;28;20288;-83
2024/02/09 10:29:31;;;;;;;;;;;;;;;16.59;48.00;98931.53;4989326;28;19925;-85
2024/02/09 10:31:56;;;;;;;;;;;;;;;16.67;47.84;98921.34;4999747;28;19906;-84
2024/02/09 10:34:24;;;;;;;;;;;;;;;16.70;47.69;98917.41;5010023;28;19925;-84
2024/02/09 10:36:53;;;;;;;;;;;;;;;16.78;47.80;98909.88;4972582;28;19918;-84
2024/02/09 10:39:18;;;;;;;;;;;;;;;16.87;47.66;98910.31;4992158;28;19918;-84
2024/02/09 10:41:48;;;;;;;;;;;;;;;16.95;47.41;98904.63;4976683;28;20462;-84
2024/02/09 10:44:15;;;;;;;;;;;;;;;16.94;46.52;98886.19;4974031;28;19918;-83
2024/02/09 10:46:42;;;;;;;;;;;;;;;16.89;44.89;98897.56;4978370;28;19914;-83
2024/02/09 10:49:08;;;;;;;;;;;;;;;16.84;46.64;98890.28;4995760;28;19913;-83
2024/02/09 10:51:35;;;;;;;;;;;;;;;16.83;45.60;98886.00;4966049;28;20451;-84
2024/02/09 10:54:11;;;;;;;;;;;;;;;16.84;45.70;98871.59;4986600;28;19922;-84
2024/02/09 10:56:37;;;;;;;;;;;;;;;16.81;45.12;98869.41;4994688;28;20444;-83
2024/02/09 10:59:05;;;;;;;;;;;;;;;16.85;44.98;98859.09;4995183;28;20000;-84
2024/02/09 11:01:32;;;;;;;;;;;;;;;16.88;45.23;98855.94;4995856;28;20489;-84
2024/02/09 11:03:57;;;;;;;;;;;;;;;16.94;45.56;98847.00;4972510;28;19918;-84
2024/02/09 11:06:24;;;;;;;;;;;;;;;17.00;45.31;98847.91;4994698;28;19913;-84
2024/02/09 11:08:50;;;;;;;;;;;;;;;16.40;44.62;98737.13;4993658;28;19929;-82
2024/02/09 11:11:15;;;;;;;;;;;;;;;17.13;45.44;98829.00;4975780;28;19925;-83
2024/02/09 11:13:40;;;;;;;;;;;;;;;17.24;44.06;98819.34;4992641;28;19925;-83
2024/02/09 11:16:08;;;;;;;;;;;;;;;17.38;44.57;98821.47;4994850;28;19968;-83
2024/02/09 11:18:37;;;;;;;;;;;;;;;17.47;45.03;98820.03;4973382;28;20326;-83
2024/02/09 11:21:06;;;;;;;;;;;;;;;17.50;44.74;98816.06;4976757;28;19918;-84
2024/02/09 11:23:32;;;;;;;;;;;;;;;17.50;44.31;98809.91;4990548;28;20318;-84
2024/02/09 11:26:02;;;;;;;;;;;;;;;17.52;44.17;98807.81;4975489;28;19918;-83
2024/02/09 11:28:27;;;;;;;;;;;;;;;17.58;44.09;98796.19;4971326;28;19925;-84
2024/02/09 11:30:54;;;;;;;;;;;;;;;17.64;42.80;98788.00;4987822;28;19922;-83
2024/02/09 11:33:21;;;;;;;;;;;;;;;17.68;43.11;98791.03;4988228;28;20009;-83
2024/02/09 11:35:48;;;;;;;;;;;;;;;17.73;43.63;98778.59;4976412;28;19922;-84
2024/02/09 11:38:13;;;;;;;;;;;;;;;17.79;42.19;98779.47;4985644;28;19924;-83
2024/02/09 11:40:39;;;;;;;;;;;;;;;17.86;42.72;98774.00;4975158;28;19918;-83
2024/02/09 11:43:05;;;;;;;;;;;;;;;17.94;42.95;98771.72;4961914;28;20020;-83
2024/02/09 11:45:30;;;;;;;;;;;;;;;18.01;43.02;98752.84;4992475;28;19969;-83
2024/02/09 11:47:56;;;;;;;;;;;;;;;18.10;41.57;98756.72;4991786;28;20365;-83
2024/02/09 11:50:22;;;;;;;;;;;;;;;18.14;42.00;98765.06;4975093;28;20410;-83
2024/02/09 11:52:48;;;;;;;;;;;;;;;18.18;42.43;98774.19;4982378;28;19965;-83
2024/02/09 11:55:13;;;;;;;;;;;;;;;18.20;42.18;98764.06;4992619;28;19918;-83
2024/02/09 11:57:40;;;;;;;;;;;;;;;18.18;41.87;98768.84;4992535;28;20308;-83
2024/02/09 12:00:06;;;;;;;;;;;;;;;18.16;41.59;98766.44;4988297;28;19922;-83
2024/02/09 12:02:31;;;;;;;;;;;;;;;18.13;42.32;98756.22;4994385;28;19914;-82
2024/02/09 12:04:57;;;;;;;;;;;;;;;18.13;42.00;98750.09;4993105;28;20406;-82
2024/02/09 12:07:22;;;;;;;;;;;;;;;18.13;42.24;98747.41;4972880;28;20064;-85
2024/02/09 12:09:49;;;;;;;;;;;;;;;18.15;42.14;98758.66;4972659;28;19922;-82
2024/02/09 12:12:14;;;;;;;;;;;;;;;18.16;42.49;98761.09;4974275;28;20322;-83
2024/02/09 12:14:39;;;;;;;;;;;;;;;18.15;42.73;98758.66;4992530;28;20001;-83
2024/02/09 12:17:08;;;;;;;;;;;;;;;18.13;41.82;98750.09;4992803;28;19918;-83
2024/02/09 12:19:33;;;;;;;;;;;;;;;18.12;42.04;98751.94;4992669;28;19964;-83
2024/02/09 12:22:00;;;;;;;;;;;;;;;18.14;42.16;98736.47;4974775;28;20348;-83
2024/02/09 12:24:26;;;;;;;;;;;;;;;18.18;42.61;98736.78;4972043;28;19918;-82
2024/02/09 12:26:51;;;;;;;;;;;;;;;18.20;42.23;98740.84;4968264;28;20347;-82
2024/02/09 12:29:16;;;;;;;;;;;;;;;18.21;42.05;98731.75;4989893;28;19976;-82
2024/02/09 12:31:46;;;;;;;;;;;;;;;18.22;41.67;98730.72;4989331;28;20379;-83
2024/02/09 12:34:14;;;;;;;;;;;;;;;18.29;42.37;98743.88;4979437;28;20526;-83
2024/02/09 12:36:41;;;;;;;;;;;;;;;18.26;41.22;98741.72;4973701;28;19920;-83
2024/02/09 12:39:11;;;;;;;;;;;;;;;18.28;42.07;98744.94;4966316;28;19960;-83
2024/02/09 12:41:40;;;;;;;;;;;;;;;18.23;41.07;98726.97;4987190;28;19918;-83
2024/02/09 12:44:07;;;;;;;;;;;;;;;18.20;40.94;98724.00;4986502;28;19997;-83
2024/02/09 12:46:32;;;;;;;;;;;;;;;18.16;41.04;98721.00;4956011;28;19914;-83
2024/02/09 12:48:57;;;;;;;;;;;;;;;18.15;41.36;98722.06;4982491;28;19918;-83
2024/02/09 12:51:23;;;;;;;;;;;;;;;18.15;40.96;98724.72;4979710;28;19922;-83
2024/02/09 12:53:48;;;;;;;;;;;;;;;18.17;40.74;98725.28;4991052;28;19961;-84
2024/02/09 12:56:14;;;;;;;;;;;;;;;18.21;41.07;98721.06;4974613;28;19913;-83
2024/02/09 12:58:40;;;;;;;;;;;;;;;18.22;41.46;98709.34;4991030;28;20020;-83
2024/02/09 13:01:06;;;;;;;;;;;;;;;18.22;41.38;98717.34;4991416;28;19960;-83
2024/02/09 13:03:32;;;;;;;;;;;;;;;18.21;40.96;98714.91;4978217;28;20425;-83
2024/02/09 13:05:58;;;;;;;;;;;;;;;18.21;41.32;98715.72;4973542;28;19925;-83
2024/02/09 13:08:23;;;;;;;;;;;;;;;18.20;41.09;98724.81;4917405;28;1810512;-83
2024/02/09 13:10:49;;;;;;;;;;;;;;;18.19;40.95;98707.16;4993302;28;19922;-83
2024/02/09 13:13:16;;;;;;;;;;;;;;;18.18;40.87;98732.25;4989908;28;19917;-83
2024/02/09 13:15:42;;;;;;;;;;;;;;;18.14;40.90;98711.63;4991799;28;20012;-82
2024/02/09 13:18:08;;;;;;;;;;;;;;;18.08;40.72;98718.75;4992053;28;20334;-83
2024/02/09 13:20:36;;;;;;;;;;;;;;;18.07;41.00;98709.13;4991836;28;19917;-83
2024/02/09 13:23:02;;;;;;;;;;;;;;;17.97;40.90;98709.00;4992150;28;20378;-83
2024/02/09 13:25:33;;;;;;;;;;;;;;;17.96;40.63;98705.53;4992219;28;19918;-82
2024/02/09 13:27:59;;;;;;;;;;;;;;;17.97;40.72;98709.00;4975043;28;20351;-83
2024/02/09 13:30:25;;;;;;;;;;;;;;;17.97;41.05;98704.47;4991408;28;20049;-82
2024/02/09 13:32:50;;;;;;;;;;;;;;;17.95;41.12;98697.75;4985033;28;19917;-83
2024/02/09 13:35:17;;;;;;;;;;;;;;;17.94;41.10;98685.44;4992924;28;19917;-83
2024/02/09 13:37:44;;;;;;;;;;;;;;;17.93;40.86;98676.63;4975209;28;20355;-83
2024/02/09 13:40:16;;;;;;;;;;;;;;;17.92;40.61;98672.34;4991600;28;20315;-82
2024/02/09 13:42:51;;;;;;;;;;;;;;;17.91;40.81;98673.41;4975185;28;20342;-83
2024/02/09 13:45:25;;;;;;;;;;;;;;;17.93;41.28;98667.81;4991218;28;19956;-82
2024/02/09 13:47:53;;;;;;;;;;;;;;;17.96;40.82;98678.81;4989859;28;19918;-82
2024/02/09 13:50:23;;;;;;;;;;;;;;;17.98;40.64;98678.56;4973763;28;19925;-82
2024/02/09 13:52:49;;;;;;;;;;;;;;;18.02;40.94;98667.13;4974642;28;19917;-83
2024/02/09 13:55:15;;;;;;;;;;;;;;;18.03;40.85;98671.41;4991852;28;19989;-83
2024/02/09 13:57:43;;;;;;;;;;;;;;;18.07;40.40;98659.19;4989932;28;19934;-82
2024/02/09 14:00:09;;;;;;;;;;;;;;;18.10;40.67;98660.56;4974229;28;19914;-82
2024/02/09 14:02:35;;;;;;;;;;;;;;;18.12;40.62;98669.13;4992205;28;20034;-83
2024/02/09 14:05:00;;;;;;;;;;;;;;;18.13;40.36;98645.88;4975215;28;19910;-82
2024/02/09 14:07:25;;;;;;;;;;;;;;;18.13;40.39;98660.06;4975382;28;19920;-83
2024/02/09 14:09:51;;;;;;;;;;;;;;;18.15;40.35;98649.94;4971196;28;19929;-83
2024/02/09 14:12:16;;;;;;;;;;;;;;;18.13;40.00;98659.25;4974871;28;19922;-83
2024/02/09 14:14:41;;;;;;;;;;;;;;;18.06;40.30;98651.41;4963872;28;19918;-82
2024/02/09 14:17:07;;;;;;;;;;;;;;;18.07;40.41;98659.19;4974493;28;19914;-83
2024/02/09 14:19:32;;;;;;;;;;;;;;;18.02;40.42;98652.97;4985531;28;19972;-83
2024/02/09 14:21:58;;;;;;;;;;;;;;;18.02;40.20;98669.00;4986880;28;19957;-83
2024/02/09 14:24:24;;;;;;;;;;;;;;;18.03;40.43;98659.94;4991910;28;19914;-82
2024/02/09 14:26:50;;;;;;;;;;;;;;;18.01;40.66;98656.69;4991373;28;19914;-83
2024/02/09 14:29:15;;;;;;;;;;;;;;;18.03;40.83;98657.25;4983722;28;20289;-82
2024/02/09 14:31:43;;;;;;;;;;;;;;;18.05;40.92;98649.81;4977816;28;19989;-82